createdAt,value
2023-01-31T00:02:10.564Z,17.00
2023-01-31T00:04:39.798Z,17.70
2023-01-31T00:07:07.836Z,16.80
2023-01-31T00:09:36.197Z,17.40
2023-01-31T00:12:04.264Z,18.10
2023-01-31T00:14:33.297Z,17.40
2023-01-31T00:17:01.567Z,17.60
2023-01-31T00:19:29.829Z,17.70
2023-01-31T00:21:58.160Z,17.00
2023-01-31T00:24:26.197Z,16.70
2023-01-31T00:26:57.094Z,16.70
2023-01-31T00:29:27.170Z,17.20
2023-01-31T00:31:55.964Z,16.80
2023-01-31T00:34:24.085Z,15.40
2023-01-31T00:36:52.065Z,16.90
2023-01-31T00:39:20.033Z,16.90
2023-01-31T00:41:48.080Z,15.70
2023-01-31T00:44:16.173Z,16.40
2023-01-31T00:46:44.369Z,16.80
2023-01-31T00:49:12.579Z,16.90
2023-01-31T00:51:40.752Z,16.30
2023-01-31T00:54:08.667Z,16.40
2023-01-31T00:56:38.686Z,16.90
2023-01-31T00:59:09.416Z,15.80
2023-01-31T01:01:38.513Z,17.50
2023-01-31T01:04:07.071Z,15.60
2023-01-31T01:06:36.248Z,15.80
2023-01-31T01:09:05.379Z,15.30
2023-01-31T01:11:34.789Z,17.80
2023-01-31T01:14:03.480Z,15.70
2023-01-31T01:16:37.470Z,15.40
2023-01-31T01:19:11.935Z,15.70
2023-01-31T01:21:41.694Z,16.80
2023-01-31T01:24:15.777Z,15.50
2023-01-31T01:26:44.875Z,15.80
2023-01-31T01:29:14.149Z,17.30
2023-01-31T01:31:43.576Z,17.20
2023-01-31T01:34:14.916Z,16.20
2023-01-31T01:36:43.279Z,16.80
2023-01-31T01:39:12.063Z,16.50
2023-01-31T01:41:40.603Z,15.20
2023-01-31T01:44:43.106Z,15.30
2023-01-31T01:47:14.056Z,15.30
2023-01-31T01:49:42.162Z,16.40
2023-01-31T01:52:12.549Z,15.50
2023-01-31T01:54:46.532Z,15.60
2023-01-31T01:57:17.072Z,17.40
2023-01-31T01:59:52.624Z,16.40
2023-01-31T02:02:20.745Z,16.20
2023-01-31T02:04:50.411Z,16.90
2023-01-31T02:07:18.606Z,15.70
2023-01-31T02:10:06.823Z,16.90
2023-01-31T02:12:35.922Z,16.30
2023-01-31T02:15:05.032Z,17.20
2023-01-31T02:17:33.116Z,16.90
2023-01-31T02:20:38.248Z,15.80
2023-01-31T02:23:32.737Z,15.30
2023-01-31T02:29:05.623Z,16.80
2023-01-31T02:32:00.561Z,17.20
2023-01-31T02:34:41.704Z,18.50
2023-01-31T02:37:28.459Z,18.00
2023-01-31T02:40:24.217Z,17.00
2023-01-31T02:43:13.519Z,16.20
2023-01-31T02:46:04.637Z,18.60
2023-01-31T02:48:58.398Z,17.50
2023-01-31T02:51:31.365Z,15.90
2023-01-31T02:54:06.076Z,16.70
2023-01-31T02:56:35.124Z,16.80
2023-01-31T02:59:22.035Z,17.50
2023-01-31T03:01:56.326Z,17.20
2023-01-31T03:04:24.708Z,16.30
2023-01-31T03:06:59.920Z,16.90
2023-01-31T03:09:30.538Z,16.40
2023-01-31T03:12:24.880Z,17.40
2023-01-31T03:15:03.710Z,15.60
2023-01-31T03:18:00.248Z,15.70
2023-01-31T03:20:36.395Z,16.60
2023-01-31T03:23:08.527Z,16.40
2023-01-31T03:25:38.068Z,16.90
2023-01-31T03:28:10.617Z,15.20
2023-01-31T03:30:43.967Z,16.20
2023-01-31T03:33:19.970Z,16.30
2023-01-31T03:35:51.908Z,15.40
2023-01-31T03:38:33.119Z,15.90
2023-01-31T03:41:13.865Z,16.80
2023-01-31T03:44:14.757Z,15.40
2023-01-31T03:46:55.573Z,17.00
2023-01-31T03:49:24.351Z,16.20
2023-01-31T03:51:54.430Z,18.50
2023-01-31T03:54:29.909Z,16.80
2023-01-31T03:57:01.029Z,15.90
2023-01-31T03:59:33.030Z,15.70
2023-01-31T04:02:01.867Z,16.30
2023-01-31T04:04:33.043Z,16.80
2023-01-31T04:07:01.653Z,16.90
2023-01-31T04:09:30.162Z,16.20
2023-01-31T04:12:02.170Z,16.80
2023-01-31T04:14:30.710Z,16.30
2023-01-31T04:16:58.918Z,16.90
2023-01-31T04:19:27.376Z,17.70
2023-01-31T04:21:55.646Z,17.20
2023-01-31T04:24:24.578Z,16.60
2023-01-31T04:26:52.941Z,17.80
2023-01-31T04:29:21.091Z,19.10
2023-01-31T04:31:49.434Z,17.70
2023-01-31T04:34:17.874Z,16.80
2023-01-31T04:36:45.974Z,17.70
2023-01-31T04:39:14.913Z,15.80
2023-01-31T04:41:44.515Z,17.10
2023-01-31T04:44:12.789Z,18.40
2023-01-31T04:46:40.880Z,17.70
2023-01-31T04:49:09.887Z,18.80
2023-01-31T04:51:38.257Z,17.80
2023-01-31T04:54:06.259Z,17.00
2023-01-31T04:56:35.419Z,17.30
2023-01-31T04:59:03.503Z,17.80
2023-01-31T05:01:34.701Z,18.20
2023-01-31T05:04:02.840Z,18.60
2023-01-31T05:06:31.452Z,18.60
2023-01-31T05:09:01.738Z,17.00
2023-01-31T05:11:30.086Z,16.00
2023-01-31T05:13:59.306Z,18.90
2023-01-31T05:16:27.427Z,17.80
2023-01-31T05:18:55.678Z,18.50
2023-01-31T05:21:23.727Z,17.30
2023-01-31T05:23:51.863Z,18.30
2023-01-31T05:26:19.914Z,18.20
2023-01-31T05:28:48.347Z,17.70
2023-01-31T05:31:16.657Z,17.40
2023-01-31T05:33:45.011Z,18.80
2023-01-31T05:36:15.041Z,17.00
2023-01-31T05:38:43.466Z,18.80
2023-01-31T05:41:11.770Z,18.80
2023-01-31T05:43:40.132Z,17.70
2023-01-31T05:46:08.394Z,17.70
2023-01-31T05:48:37.053Z,17.50
2023-01-31T05:51:05.270Z,19.20
2023-01-31T05:53:33.401Z,20.30
2023-01-31T05:56:01.602Z,19.70
2023-01-31T05:58:29.886Z,18.20
2023-01-31T06:00:58.470Z,19.50
2023-01-31T06:03:26.742Z,20.80
2023-01-31T06:05:55.123Z,19.50
2023-01-31T06:08:25.445Z,19.60
2023-01-31T06:10:53.718Z,18.90
2023-01-31T06:13:21.967Z,19.90
2023-01-31T06:15:50.201Z,19.80
2023-01-31T06:18:18.624Z,20.40
2023-01-31T06:20:48.637Z,20.30
2023-01-31T06:23:17.324Z,20.60
2023-01-31T06:25:49.400Z,21.00
2023-01-31T06:28:17.947Z,21.00
2023-01-31T06:30:46.211Z,19.30
2023-01-31T06:33:14.861Z,21.90
2023-01-31T06:35:43.425Z,21.30
2023-01-31T06:38:16.388Z,23.40
2023-01-31T06:40:44.819Z,21.90
2023-01-31T06:43:13.267Z,20.50
2023-01-31T06:45:44.567Z,21.30
2023-01-31T06:48:12.950Z,23.00
2023-01-31T06:50:41.812Z,20.10
2023-01-31T06:53:10.088Z,21.00
2023-01-31T06:55:39.151Z,20.50
2023-01-31T06:58:07.113Z,20.40
2023-01-31T07:00:35.763Z,20.90
2023-01-31T07:03:05.130Z,20.50
2023-01-31T07:05:33.601Z,20.70
2023-01-31T07:10:34.732Z,18.50
2023-01-31T07:13:02.873Z,21.30
2023-01-31T07:15:33.004Z,22.10
2023-01-31T07:18:01.061Z,21.70
2023-01-31T07:20:30.231Z,22.40
2023-01-31T07:22:58.801Z,21.40
2023-01-31T07:25:27.243Z,21.40
2023-01-31T07:27:56.079Z,20.90
2023-01-31T07:30:24.175Z,20.70
2023-01-31T07:32:52.390Z,22.70
2023-01-31T07:35:20.957Z,22.50
2023-01-31T07:37:52.071Z,22.10
2023-01-31T07:40:20.238Z,19.20
2023-01-31T07:42:50.260Z,21.00
2023-01-31T07:45:23.435Z,20.60
2023-01-31T07:47:52.450Z,22.00
2023-01-31T07:50:20.632Z,20.40
2023-01-31T07:52:50.238Z,21.90
2023-01-31T07:55:18.578Z,22.20
2023-01-31T07:57:47.399Z,21.80
2023-01-31T08:00:34.988Z,24.30
2023-01-31T08:03:21.951Z,25.80
2023-01-31T08:05:50.103Z,26.70
2023-01-31T08:08:18.532Z,30.50
2023-01-31T08:10:47.437Z,28.60
2023-01-31T08:13:16.225Z,29.30
2023-01-31T08:15:44.561Z,27.50
2023-01-31T08:18:13.072Z,24.40
2023-01-31T08:20:41.701Z,24.50
2023-01-31T08:23:09.887Z,25.20
2023-01-31T08:25:38.534Z,23.60
2023-01-31T08:28:06.832Z,24.80
2023-01-31T08:30:39.953Z,21.00
2023-01-31T08:33:08.741Z,24.10
2023-01-31T08:35:36.938Z,24.90
2023-01-31T08:38:18.449Z,24.20
2023-01-31T08:40:48.242Z,23.20
2023-01-31T08:43:16.314Z,22.90
2023-01-31T08:45:45.296Z,23.40
2023-01-31T08:48:15.025Z,25.70
2023-01-31T08:50:43.079Z,24.40
2023-01-31T08:53:11.161Z,23.50
2023-01-31T08:56:45.439Z,24.20
2023-01-31T08:59:13.724Z,24.10
2023-01-31T09:01:44.116Z,24.00
2023-01-31T09:04:12.811Z,23.30
2023-01-31T09:06:41.034Z,24.10
2023-01-31T09:09:11.964Z,25.20
2023-01-31T09:11:39.913Z,25.70
2023-01-31T09:14:08.987Z,23.10
2023-01-31T09:16:38.057Z,22.60
2023-01-31T09:19:06.525Z,22.90
2023-01-31T09:21:34.532Z,23.40
2023-01-31T09:24:03.916Z,23.50
2023-01-31T09:26:34.533Z,22.10
2023-01-31T09:29:02.849Z,23.70
2023-01-31T09:31:32.277Z,23.60
2023-01-31T09:34:01.284Z,27.20
2023-01-31T09:36:30.147Z,25.10
2023-01-31T09:38:58.358Z,24.60
2023-01-31T09:41:42.066Z,25.40
2023-01-31T09:47:01.726Z,24.00
2023-01-31T09:49:31.996Z,20.60
2023-01-31T09:52:02.258Z,21.90
2023-01-31T09:54:36.548Z,23.90
2023-01-31T09:57:28.460Z,23.30
2023-01-31T10:00:09.838Z,20.90
2023-01-31T10:02:41.095Z,20.70
2023-01-31T10:05:32.895Z,24.10
2023-01-31T10:08:10.070Z,23.80
2023-01-31T10:10:52.577Z,22.50
2023-01-31T10:13:24.887Z,21.00
2023-01-31T10:16:01.183Z,20.20
2023-01-31T10:18:31.876Z,22.70
2023-01-31T10:21:09.141Z,22.50
2023-01-31T10:23:41.458Z,20.50
2023-01-31T10:26:15.109Z,19.70
2023-01-31T10:29:00.221Z,20.30
2023-01-31T10:32:12.866Z,21.10
2023-01-31T10:34:56.527Z,23.90
2023-01-31T10:37:44.558Z,22.70
2023-01-31T10:40:24.449Z,23.60
2023-01-31T10:42:57.536Z,21.00
2023-01-31T10:45:32.160Z,23.60
2023-01-31T10:48:26.331Z,23.60
2023-01-31T10:51:17.168Z,20.70
2023-01-31T10:54:13.476Z,23.70
2023-01-31T10:56:46.202Z,23.60
2023-01-31T10:59:24.925Z,25.00
2023-01-31T11:01:53.046Z,21.60
2023-01-31T11:04:41.627Z,18.90
2023-01-31T11:07:10.703Z,21.00
2023-01-31T11:09:44.064Z,21.40
2023-01-31T11:12:12.371Z,20.50
2023-01-31T11:14:40.616Z,21.60
2023-01-31T11:17:18.952Z,21.60
2023-01-31T11:19:49.435Z,21.40
2023-01-31T11:22:29.592Z,21.80
2023-01-31T11:24:59.489Z,21.00
2023-01-31T11:27:48.312Z,21.50
2023-01-31T11:30:31.652Z,21.50
2023-01-31T11:32:59.874Z,22.80
2023-01-31T11:35:28.744Z,23.70
2023-01-31T11:38:01.265Z,21.10
2023-01-31T11:40:36.116Z,22.80
2023-01-31T11:43:06.593Z,23.40
2023-01-31T11:45:36.405Z,23.90
2023-01-31T11:48:08.641Z,23.30
2023-01-31T11:50:51.366Z,21.30
2023-01-31T11:53:25.647Z,22.80
2023-01-31T11:55:55.942Z,24.90
2023-01-31T11:58:36.652Z,23.40
2023-01-31T12:01:06.867Z,25.40
2023-01-31T12:03:35.988Z,25.20
2023-01-31T12:06:09.102Z,26.60
2023-01-31T12:08:41.857Z,24.70
2023-01-31T12:11:21.165Z,23.00
2023-01-31T12:13:51.803Z,23.80
2023-01-31T12:16:24.900Z,26.60
2023-01-31T12:19:12.024Z,25.30
2023-01-31T12:22:07.226Z,23.80
2023-01-31T12:24:45.153Z,26.00
2023-01-31T12:27:29.270Z,23.00
2023-01-31T12:30:27.788Z,23.70
2023-01-31T12:33:14.034Z,22.60
2023-01-31T12:35:49.279Z,21.30
2023-01-31T12:38:38.372Z,25.20
2023-01-31T12:41:23.954Z,21.90
2023-01-31T12:44:29.049Z,23.60
2023-01-31T12:47:34.499Z,21.10
2023-01-31T12:50:37.799Z,21.60
2023-01-31T12:53:24.966Z,21.90
2023-01-31T12:56:12.515Z,22.70
2023-01-31T12:59:15.028Z,24.50
2023-01-31T13:01:55.550Z,25.00
2023-01-31T13:04:33.063Z,23.30
2023-01-31T13:07:04.608Z,23.40
2023-01-31T13:09:36.969Z,26.60
2023-01-31T13:12:13.185Z,24.10
2023-01-31T13:14:43.626Z,24.90
2023-01-31T13:17:17.451Z,22.70
2023-01-31T13:20:00.540Z,26.40
2023-01-31T13:22:32.554Z,22.90
2023-01-31T13:25:29.144Z,22.20
2023-01-31T13:28:01.283Z,24.00
2023-01-31T13:30:46.247Z,24.80
2023-01-31T13:33:34.514Z,24.60
2023-01-31T13:36:08.845Z,24.40
2023-01-31T13:38:39.998Z,25.20
2023-01-31T13:41:10.306Z,24.40
2023-01-31T13:43:39.204Z,24.60
2023-01-31T13:46:08.660Z,24.50
2023-01-31T13:48:56.183Z,27.90
2023-01-31T13:51:53.003Z,28.40
2023-01-31T13:54:33.199Z,26.90
2023-01-31T13:57:01.617Z,26.60
2023-01-31T13:59:34.321Z,26.70
2023-01-31T14:04:34.956Z,27.90
2023-01-31T14:07:04.609Z,31.60
2023-01-31T14:09:42.596Z,29.30
2023-01-31T14:12:11.039Z,28.60
2023-01-31T14:14:53.132Z,27.90
2023-01-31T14:17:21.442Z,28.50
2023-01-31T14:19:49.672Z,29.00
2023-01-31T14:22:19.286Z,25.90
2023-01-31T14:24:47.219Z,25.10
2023-01-31T14:27:27.726Z,24.80
2023-01-31T14:30:04.744Z,25.20
2023-01-31T14:32:42.160Z,24.40
2023-01-31T14:35:13.064Z,23.70
2023-01-31T14:38:09.639Z,23.90
2023-01-31T14:40:42.779Z,25.90
2023-01-31T14:43:11.876Z,25.30
2023-01-31T14:46:01.929Z,25.50
2023-01-31T14:48:42.616Z,24.80
2023-01-31T14:51:23.475Z,23.60
2023-01-31T14:54:16.946Z,25.30
2023-01-31T14:57:19.033Z,25.20
2023-01-31T15:00:05.177Z,25.80
2023-01-31T15:02:33.941Z,23.40
2023-01-31T15:05:07.460Z,25.00
2023-01-31T15:07:35.576Z,24.10
2023-01-31T15:10:05.045Z,25.40
2023-01-31T15:12:52.842Z,24.80
2023-01-31T15:15:41.256Z,25.80
2023-01-31T15:18:20.259Z,26.60
2023-01-31T15:20:51.457Z,27.00
2023-01-31T15:23:29.903Z,29.40
2023-01-31T15:25:58.836Z,22.90
2023-01-31T15:28:29.321Z,25.80
2023-01-31T15:30:58.626Z,25.40
2023-01-31T15:33:35.808Z,26.30
2023-01-31T15:36:09.135Z,23.90
2023-01-31T15:38:54.627Z,24.50
2023-01-31T15:41:42.424Z,24.50
2023-01-31T15:44:24.855Z,25.00
2023-01-31T15:46:55.025Z,23.40
2023-01-31T15:49:39.258Z,24.60
2023-01-31T15:52:22.486Z,23.00
2023-01-31T15:54:59.518Z,22.90
2023-01-31T15:57:38.172Z,24.30
2023-01-31T16:00:07.060Z,21.00
2023-01-31T16:02:38.158Z,21.00
2023-01-31T16:05:07.311Z,19.90
2023-01-31T16:07:36.104Z,20.90
2023-01-31T16:10:04.914Z,20.30
2023-01-31T16:12:34.269Z,19.60
2023-01-31T16:15:06.615Z,19.50
2023-01-31T16:17:34.668Z,22.70
2023-01-31T16:20:03.399Z,21.20
2023-01-31T16:22:32.026Z,21.00
2023-01-31T16:25:02.161Z,19.80
2023-01-31T16:27:33.171Z,19.00
2023-01-31T16:30:01.789Z,18.50
2023-01-31T16:32:35.221Z,20.60
2023-01-31T16:35:05.664Z,19.20
2023-01-31T16:37:37.154Z,18.40
2023-01-31T16:40:06.846Z,17.00
2023-01-31T16:42:36.196Z,18.60
2023-01-31T16:45:29.734Z,19.10
2023-01-31T16:48:27.861Z,17.00
2023-01-31T16:50:56.916Z,16.60
2023-01-31T16:53:32.927Z,17.10
2023-01-31T16:56:13.266Z,18.40
2023-01-31T16:58:52.407Z,16.90
2023-01-31T17:01:24.424Z,15.80
2023-01-31T17:04:05.803Z,15.10
2023-01-31T17:06:33.928Z,16.20
2023-01-31T17:09:06.170Z,16.80
2023-01-31T17:11:42.552Z,16.00
2023-01-31T17:14:12.490Z,17.50
2023-01-31T17:16:40.489Z,15.60
2023-01-31T17:19:08.651Z,17.50
2023-01-31T17:21:41.572Z,16.80
2023-01-31T17:24:20.341Z,16.30
2023-01-31T17:26:48.807Z,14.80
2023-01-31T17:29:17.480Z,16.80
2023-01-31T17:31:45.732Z,17.80
2023-01-31T17:34:14.599Z,16.80
2023-01-31T17:36:43.882Z,17.50
2023-01-31T17:39:12.146Z,18.20
2023-01-31T17:41:43.270Z,20.20
2023-01-31T17:44:13.634Z,18.40
2023-01-31T17:46:43.284Z,18.10
2023-01-31T17:49:14.306Z,18.00
2023-01-31T17:51:42.615Z,16.40
2023-01-31T17:54:11.724Z,16.40
2023-01-31T17:56:40.120Z,15.30
2023-01-31T17:59:14.959Z,15.50
2023-01-31T18:01:43.543Z,13.90
2023-01-31T18:04:11.968Z,13.40
2023-01-31T18:06:40.449Z,15.00
2023-01-31T18:09:12.900Z,13.40
2023-01-31T18:11:43.706Z,12.60
2023-01-31T18:14:12.303Z,12.80
2023-01-31T18:16:40.526Z,13.10
2023-01-31T18:19:08.677Z,13.50
2023-01-31T18:21:43.897Z,11.60
2023-01-31T18:24:15.657Z,13.00
2023-01-31T18:26:44.712Z,14.10
2023-01-31T18:29:19.715Z,14.90
2023-01-31T18:31:48.183Z,14.30
2023-01-31T18:34:16.445Z,13.20
2023-01-31T18:36:45.172Z,15.00
2023-01-31T18:39:13.865Z,13.50
2023-01-31T18:41:42.362Z,14.30
2023-01-31T18:44:10.480Z,13.50
2023-01-31T18:46:38.934Z,14.20
2023-01-31T18:49:07.386Z,15.30
2023-01-31T18:51:38.322Z,13.50
2023-01-31T18:54:07.990Z,12.80
2023-01-31T18:56:36.513Z,13.30
2023-01-31T18:59:04.996Z,12.90
2023-01-31T19:01:33.988Z,12.50
2023-01-31T19:04:02.846Z,12.00
2023-01-31T19:06:35.943Z,12.60
2023-01-31T19:09:05.885Z,12.70
2023-01-31T19:11:34.773Z,13.40
2023-01-31T19:14:07.439Z,13.20
2023-01-31T19:16:37.233Z,11.90
2023-01-31T19:19:05.651Z,12.10
2023-01-31T19:21:34.848Z,12.30
2023-01-31T19:24:05.138Z,12.40
2023-01-31T19:29:16.870Z,12.10
2023-01-31T19:31:45.628Z,11.70
2023-01-31T19:34:14.218Z,12.60
2023-01-31T19:36:44.913Z,12.30
2023-01-31T19:39:13.978Z,11.40
2023-01-31T19:41:42.859Z,11.30
2023-01-31T19:44:11.665Z,11.00
2023-01-31T19:46:40.134Z,11.20
2023-01-31T19:49:08.538Z,10.30
2023-01-31T19:51:38.170Z,11.00
2023-01-31T19:54:07.311Z,11.10
2023-01-31T19:56:35.813Z,11.90
2023-01-31T19:59:06.249Z,11.20
2023-01-31T20:01:35.120Z,11.10
2023-01-31T20:04:03.609Z,10.70
2023-01-31T20:06:36.580Z,11.30
2023-01-31T20:09:06.248Z,12.20
2023-01-31T20:11:37.115Z,11.30
2023-01-31T20:14:06.603Z,9.60
2023-01-31T20:16:35.501Z,10.20
2023-01-31T20:19:06.920Z,11.90
2023-01-31T20:21:35.978Z,9.10
2023-01-31T20:24:04.544Z,9.60
2023-01-31T20:26:35.607Z,10.00
2023-01-31T20:29:06.697Z,9.70
2023-01-31T20:31:36.416Z,10.00
2023-01-31T20:34:06.834Z,8.70
2023-01-31T20:36:35.021Z,9.20
2023-01-31T20:39:03.540Z,9.60
2023-01-31T20:41:32.838Z,8.80
2023-01-31T20:44:01.236Z,8.90
2023-01-31T20:46:29.505Z,8.70
2023-01-31T20:48:58.481Z,8.90
2023-01-31T20:51:28.285Z,9.20
2023-01-31T20:53:56.520Z,8.40
2023-01-31T20:56:24.532Z,9.20
2023-01-31T20:58:54.634Z,7.30
2023-01-31T21:01:23.205Z,8.70
2023-01-31T21:03:52.207Z,7.90
2023-01-31T21:06:21.204Z,7.70
2023-01-31T21:08:49.475Z,7.60
2023-01-31T21:11:17.761Z,8.50
2023-01-31T21:15:07.081Z,8.30
2023-01-31T21:17:40.257Z,7.60
2023-01-31T21:20:10.979Z,8.40
2023-01-31T21:22:39.059Z,9.00
2023-01-31T21:25:10.305Z,8.80
2023-01-31T21:27:38.572Z,7.80
2023-01-31T21:30:07.645Z,7.40
2023-01-31T21:32:35.824Z,7.60
2023-01-31T21:35:04.340Z,8.30
2023-01-31T21:37:32.765Z,8.60
2023-01-31T21:40:00.908Z,7.70
2023-01-31T21:42:29.148Z,8.30
2023-01-31T21:44:57.428Z,7.60
2023-01-31T21:47:25.635Z,7.80
2023-01-31T21:49:54.258Z,7.80
2023-01-31T21:52:22.658Z,7.00
2023-01-31T21:54:50.657Z,6.70
2023-01-31T21:57:20.656Z,8.10
2023-01-31T21:59:49.059Z,6.90
2023-01-31T22:02:17.011Z,6.40
2023-01-31T22:04:44.959Z,7.60
2023-01-31T22:07:13.183Z,7.40
2023-01-31T22:09:41.055Z,7.30
2023-01-31T22:12:09.073Z,7.10
2023-01-31T22:14:37.555Z,7.10
2023-01-31T22:17:05.544Z,7.20
2023-01-31T22:19:33.531Z,7.60
2023-01-31T22:22:01.597Z,6.10
2023-01-31T22:24:29.844Z,6.50
2023-01-31T22:26:57.829Z,7.10
2023-01-31T22:29:25.881Z,6.50
2023-01-31T22:31:56.147Z,7.50
2023-01-31T22:34:24.157Z,6.00
2023-01-31T22:36:52.655Z,6.20
2023-01-31T22:39:20.629Z,6.70
2023-01-31T22:41:50.243Z,6.60
2023-01-31T22:44:19.021Z,7.70
2023-01-31T22:46:46.949Z,6.30
2023-01-31T22:49:14.880Z,8.40
2023-01-31T22:51:43.547Z,6.80
2023-01-31T22:54:11.814Z,6.60
2023-01-31T22:56:39.887Z,6.50
2023-01-31T22:59:09.629Z,7.00
2023-01-31T23:01:37.985Z,7.40
2023-01-31T23:04:10.289Z,6.90
2023-01-31T23:06:39.303Z,7.00
2023-01-31T23:09:07.452Z,6.70
2023-01-31T23:11:35.480Z,5.90
2023-01-31T23:14:03.684Z,5.60
2023-01-31T23:16:50.381Z,5.40
2023-01-31T23:19:18.733Z,6.70
2023-01-31T23:21:48.942Z,5.70
2023-01-31T23:24:17.078Z,5.10
2023-01-31T23:26:45.223Z,5.00
2023-01-31T23:29:13.426Z,5.10
2023-01-31T23:31:41.798Z,4.80
2023-01-31T23:34:09.902Z,5.80
2023-01-31T23:36:39.348Z,5.30
2023-01-31T23:39:07.455Z,5.70
2023-01-31T23:41:36.427Z,5.60
2023-01-31T23:44:04.560Z,5.70
2023-01-31T23:46:32.729Z,5.30
2023-01-31T23:49:00.815Z,4.40
2023-01-31T23:51:30.765Z,6.20
2023-01-31T23:53:59.653Z,5.10
2023-01-31T23:56:27.730Z,5.50
2023-01-31T23:58:55.771Z,5.30
